Time;durP1;ratioP1;P1;durP2;ratioP2;P2;SDS_P1;SDS_P2;PMS_P1;PMS_P2;Temp;Humidity;BMP_temperature;BMP_pressure;BME280_temperature;BME280_humidity;BME280_pressure;Samples;Min_cycle;Max_cycle;Signal;HPM_P1;HPM_P2
2022/07/10 00:00:53;;;;;;;0.20;0.20;;;16.60;66.80;;;18.11;57.01;102674.59;2016105;29;20061;-60
2022/07/10 00:01:56;;;;;;;0.10;0.10;;;16.70;67.00;;;18.10;57.47;102675.75;2016277;29;20064;-60
2022/07/10 00:03:01;;;;;;;0.20;0.20;;;16.60;67.30;;;18.07;57.57;102679.19;2016955;29;20510;-60
2022/07/10 00:04:04;;;;;;;0.20;0.20;;;16.60;67.30;;;18.05;57.50;102670.53;2005351;29;20057;-60
2022/07/10 00:05:09;;;;;;;0.20;0.20;;;16.70;67.40;;;18.05;57.54;102677.91;2008682;29;20057;-60
2022/07/10 00:06:20;;;;;;;0.13;0.13;;;16.60;67.50;;;18.02;57.65;102678.63;2012154;29;20084;-60
2022/07/10 00:07:22;;;;;;;0.20;0.20;;;16.60;67.60;;;17.97;58.31;102676.91;2017046;29;20053;-60
2022/07/10 00:08:26;;;;;;;0.20;0.20;;;16.60;67.80;;;17.92;58.08;102668.97;2028588;29;20135;-60
2022/07/10 00:09:28;;;;;;;0.10;0.10;;;16.50;67.90;;;17.87;58.40;102675.47;2023137;29;20057;-61
2022/07/10 00:10:33;;;;;;;0.10;0.10;;;16.50;68.10;;;17.78;58.47;102663.06;2024504;29;20085;-65
2022/07/10 00:11:36;;;;;;;0.20;0.20;;;16.50;68.30;;;17.81;58.75;102674.13;2016992;29;20084;-60
2022/07/10 00:12:40;;;;;;;0.20;0.20;;;16.50;68.40;;;17.84;58.72;102669.88;2016321;29;20057;-61
2022/07/10 00:13:43;;;;;;;0.20;0.20;;;16.50;68.60;;;17.84;58.86;102667.16;2023843;29;20135;-64
2022/07/10 00:14:46;;;;;;;0.20;0.20;;;16.40;68.60;;;17.84;58.80;102667.16;2023407;29;20052;-60
2022/07/10 00:15:49;;;;;;;0.20;0.20;;;16.40;68.80;;;17.84;59.04;102665.22;2016225;29;20049;-64
2022/07/10 00:16:52;;;;;;;0.20;0.20;;;16.40;68.80;;;17.84;58.70;102664.44;2022918;29;20053;-61
2022/07/10 00:17:56;;;;;;;0.28;0.28;;;16.40;68.80;;;17.83;58.63;102668.31;2019953;29;20057;-61
2022/07/10 00:19:00;;;;;;;0.20;0.20;;;16.40;68.70;;;17.83;58.60;102660.09;2024797;29;20052;-61
2022/07/10 00:20:06;;;;;;;0.20;0.20;;;16.40;68.70;;;17.84;58.79;102667.16;2016141;29;20136;-60
2022/07/10 00:21:08;;;;;;;0.30;0.30;;;16.40;68.80;;;17.85;58.58;102666.03;2016094;29;20057;-61
2022/07/10 00:22:12;;;;;;;0.20;0.20;;;16.50;68.70;;;17.85;58.70;102666.03;2016911;29;20068;-61
2022/07/10 00:23:14;;;;;;;0.20;0.20;;;16.50;68.70;;;17.85;58.83;102666.03;2017516;29;20462;-61
2022/07/10 00:24:18;;;;;;;0.30;0.30;;;16.40;68.50;;;17.86;58.67;102664.88;2017453;29;20053;-61
2022/07/10 00:25:21;;;;;;;0.20;0.20;;;16.50;68.50;;;17.86;58.65;102670.34;2009339;29;20611;-61
2022/07/10 00:26:25;;;;;;;0.20;0.20;;;16.50;68.50;;;17.85;58.64;102666.81;2013838;29;20049;-60
2022/07/10 00:27:29;;;;;;;0.20;0.20;;;16.50;68.50;;;17.85;58.76;102666.81;2016569;29;20064;-61
2022/07/10 00:28:38;;;;;;;0.20;0.20;;;16.40;68.50;;;17.84;58.79;102681.63;2016172;29;20041;-60
2022/07/10 00:29:43;;;;;;;0.20;0.20;;;16.50;68.60;;;17.80;58.64;102671.72;2016213;29;20049;-60
2022/07/10 00:30:47;;;;;;;0.20;0.20;;;16.40;68.50;;;17.82;58.76;102674.94;2017050;29;20094;-60
2022/07/10 00:31:50;;;;;;;0.20;0.20;;;16.40;68.50;;;17.79;58.61;102664.69;2017946;29;20520;-60
2022/07/10 00:32:55;;;;;;;0.20;0.20;;;16.40;68.40;;;17.78;58.85;102663.88;2016319;29;20056;-60
2022/07/10 00:33:58;;;;;;;0.20;0.20;;;16.40;68.40;;;17.77;58.50;102677.88;2016827;29;20064;-61
2022/07/10 00:35:03;;;;;;;0.20;0.20;;;16.40;68.20;;;17.72;58.57;102673.47;2016425;29;20864;-61
2022/07/10 00:36:08;;;;;;;0.20;0.20;;;16.40;67.90;;;17.67;58.09;102670.97;2015966;29;20064;-61
2022/07/10 00:37:12;;;;;;;0.20;0.20;;;16.40;67.70;;;17.67;58.09;102678.34;2016321;29;20473;-60
2022/07/10 00:38:16;;;;;;;0.20;0.20;;;16.40;67.50;;;17.64;57.75;102674.38;2017478;29;20457;-61
2022/07/10 00:39:19;;;;;;;0.20;0.20;;;16.30;67.20;;;17.64;57.80;102676.31;2016854;29;20117;-61
2022/07/10 00:40:24;;;;;;;0.20;0.20;;;16.30;67.10;;;17.62;57.34;102682.13;2015032;29;20451;-61
2022/07/10 00:41:27;;;;;;;0.20;0.20;;;16.30;66.80;;;17.61;57.21;102674.25;2016094;29;20128;-63
2022/07/10 00:42:32;;;;;;;0.20;0.20;;;16.30;66.60;;;17.59;57.01;102680.06;2016763;29;20053;-61
2022/07/10 00:43:53;;;;;;;0.20;0.20;;;16.20;66.30;;;17.55;56.97;102670.19;2017391;29;20094;-60
2022/07/10 00:44:57;;;;;;;0.30;0.30;;;16.20;66.30;;;17.56;56.88;102671.75;2016975;29;20119;-60
2022/07/10 00:46:01;;;;;;;0.20;0.20;;;16.20;66.30;;;17.52;56.55;102682.56;2016778;29;20060;-60
2022/07/10 00:47:06;;;;;;;0.20;0.20;;;16.10;66.00;;;17.46;56.40;102674.94;2015737;29;20525;-61
2022/07/10 00:48:09;;;;;;;0.20;0.20;;;16.10;65.80;;;17.45;56.31;102676.91;2016751;29;20064;-61
2022/07/10 00:49:13;;;;;;;0.20;0.20;;;16.10;65.80;;;17.41;56.80;102675.94;2017269;29;20057;-63
2022/07/10 00:50:18;;;;;;;0.20;0.20;;;16.10;65.50;;;17.30;56.24;102657.66;2017548;29;20102;-61
2022/07/10 00:51:25;;;;;;;0.20;0.20;;;16.00;65.30;;;17.35;55.88;102671.84;2016685;29;20061;-61
2022/07/10 00:52:29;;;;;;;0.20;0.20;;;16.00;65.40;;;17.32;56.13;102661.63;2015889;29;20113;-61
2022/07/10 00:53:32;;;;;;;0.20;0.20;;;16.00;65.30;;;17.30;56.09;102663.13;2016435;29;20068;-61
2022/07/10 00:54:37;;;;;;;0.85;0.30;;;16.00;65.20;;;17.29;56.01;102666.97;2016191;29;20529;-61
2022/07/10 00:55:43;;;;;;;0.28;0.28;;;16.00;65.00;;;17.25;55.80;102666.84;2016041;29;20060;-60
2022/07/10 00:56:46;;;;;;;0.20;0.20;;;15.90;64.90;;;17.24;55.64;102669.91;2016280;29;20057;-60
2022/07/10 00:57:51;;;;;;;0.20;0.20;;;15.90;65.00;;;17.21;55.61;102668.69;2016150;29;20512;-61
2022/07/10 00:58:54;;;;;;;0.20;0.20;;;15.90;64.90;;;17.20;55.91;102669.00;2015851;29;20132;-61
2022/07/10 00:59:59;;;;;;;0.20;0.20;;;15.90;64.80;;;17.16;55.51;102660.72;2016519;29;20053;-62
2022/07/10 01:01:02;;;;;;;0.20;0.20;;;15.90;64.50;;;17.16;55.42;102663.44;2016090;29;20056;-62
2022/07/10 01:02:06;;;;;;;0.20;0.20;;;15.80;64.30;;;17.14;55.14;102654.78;2017948;29;20131;-64
2022/07/10 01:03:10;;;;;;;0.20;0.20;;;15.80;64.20;;;17.14;55.12;102656.75;2017493;29;20064;-60
2022/07/10 01:04:12;;;;;;;0.20;0.20;;;15.80;64.00;;;17.12;55.12;102661.72;2016988;29;20057;-61
2022/07/10 01:05:15;;;;;;;0.20;0.20;;;15.80;64.00;;;17.12;55.00;102665.25;2017339;29;20513;-61
2022/07/10 01:06:20;;;;;;;0.20;0.20;;;15.80;63.90;;;17.10;54.79;102653.09;2009739;29;20449;-61
2022/07/10 01:07:23;;;;;;;0.20;0.20;;;15.80;63.90;;;17.01;54.73;102641.47;2019375;29;20537;-61
2022/07/10 01:08:28;;;;;;;0.20;0.20;;;15.80;63.80;;;17.09;54.91;102656.94;2023766;29;20071;-61
2022/07/10 01:09:32;;;;;;;0.10;0.10;;;15.80;63.70;;;17.10;54.79;102653.88;2017340;29;20116;-61
2022/07/10 01:10:36;;;;;;;0.20;0.20;;;15.80;63.60;;;17.09;54.67;102651.50;2025703;29;20076;-60
2022/07/10 01:11:40;;;;;;;0.20;0.20;;;15.80;63.60;;;17.06;54.82;102652.97;2025348;29;20064;-61
2022/07/10 01:12:44;;;;;;;0.20;0.20;;;15.80;63.40;;;17.06;54.72;102652.19;2020454;29;20053;-67
2022/07/10 01:13:47;;;;;;;0.13;0.13;;;15.80;63.50;;;17.03;54.65;102650.91;2017932;29;20172;-61
2022/07/10 01:14:54;;;;;;;0.20;0.20;;;15.70;63.40;;;17.01;54.77;102645.00;2022672;29;20099;-61
2022/07/10 01:15:58;;;;;;;0.20;0.20;;;15.80;63.40;;;17.04;54.65;102649.00;2024403;29;20203;-60
2022/07/10 01:17:01;;;;;;;0.20;0.20;;;15.80;63.40;;;17.06;54.58;102646.72;2010184;29;20076;-60
2022/07/10 01:18:04;;;;;;;0.10;0.10;;;15.80;63.40;;;17.08;54.65;102652.63;2013637;29;20083;-60
2022/07/10 01:19:09;;;;;;;0.20;0.20;;;15.80;63.40;;;17.07;54.70;102643.66;2018120;29;20061;-61
2022/07/10 01:20:13;;;;;;;0.10;0.10;;;15.80;63.40;;;17.09;54.61;102644.13;2017309;29;20458;-61
2022/07/10 01:21:31;;;;;;;0.20;0.20;;;15.80;63.30;;;17.11;54.71;102655.47;2017133;29;20850;-60
2022/07/10 01:22:34;;;;;;;0.10;0.10;;;15.80;63.30;;;17.13;54.44;102644.22;2018027;29;20056;-61
2022/07/10 01:23:37;;;;;;;0.20;0.20;;;15.80;63.40;;;17.14;54.53;102643.88;2018830;29;20053;-60
2022/07/10 01:24:41;;;;;;;0.13;0.13;;;15.80;63.40;;;17.16;54.42;102638.06;2018874;29;20053;-60
2022/07/10 01:25:45;;;;;;;0.20;0.20;;;15.80;63.40;;;17.18;54.60;102638.53;2018193;29;20109;-61
2022/07/10 01:26:48;;;;;;;0.20;0.20;;;15.80;63.60;;;17.22;54.64;102639.44;2018923;29;20056;-60
2022/07/10 01:27:52;;;;;;;0.10;0.10;;;15.90;63.70;;;17.22;54.71;102629.31;2017642;29;20053;-61
2022/07/10 01:28:56;;;;;;;0.15;0.15;;;15.90;63.80;;;17.26;54.83;102629.44;2017845;29;20637;-61
2022/07/10 01:30:00;;;;;;;0.13;0.13;;;15.90;63.90;;;17.27;55.02;102636.47;2016875;29;20874;-62
2022/07/10 01:31:03;;;;;;;0.20;0.20;;;15.90;64.00;;;17.30;54.89;102631.13;2017553;29;20057;-60
2022/07/10 01:32:08;;;;;;;0.20;0.20;;;15.90;64.10;;;17.33;55.08;102626.94;2017501;29;20132;-60
2022/07/10 01:33:10;;;;;;;0.10;0.10;;;15.90;64.20;;;17.25;55.04;102616.94;2017080;29;20437;-60
2022/07/10 01:34:14;;;;;;;0.20;0.20;;;15.90;64.40;;;17.36;55.44;102635.22;2018119;29;20059;-60
2022/07/10 01:35:17;;;;;;;0.10;0.10;;;15.90;64.50;;;17.37;55.51;102636.03;2015934;29;20060;-65
2022/07/10 01:36:22;;;;;;;0.20;0.20;;;15.90;64.70;;;17.40;55.24;102638.06;2017476;29;20781;-60
2022/07/10 01:37:26;;;;;;;0.17;0.17;;;15.90;64.90;;;17.41;55.45;102632.25;2017403;29;20056;-60
2022/07/10 01:38:30;;;;;;;0.20;0.20;;;16.00;65.60;;;17.41;55.60;102628.75;2019073;29;20088;-62
2022/07/10 01:39:33;;;;;;;0.20;0.20;;;16.00;65.10;;;17.43;55.56;102626.44;2017827;29;20072;-61
2022/07/10 01:40:37;;;;;;;0.20;0.20;;;16.00;65.10;;;17.45;55.80;102624.22;2016492;29;20569;-61
2022/07/10 01:41:43;;;;;;;0.20;0.20;;;16.00;65.10;;;17.48;55.61;102628.97;2020451;29;20540;-61
2022/07/10 01:42:47;;;;;;;0.20;0.20;;;16.00;65.30;;;17.50;55.83;102626.72;2017935;29;20053;-60
2022/07/10 01:43:51;;;;;;;0.10;0.10;;;16.00;65.50;;;17.49;56.07;102622.41;2021092;29;20064;-61
2022/07/10 01:44:54;;;;;;;0.20;0.20;;;16.00;65.70;;;17.48;55.94;102620.78;2024596;29;20444;-61
2022/07/10 01:45:59;;;;;;;0.20;0.20;;;16.00;65.80;;;17.49;56.22;102623.19;2010236;29;20060;-61
2022/07/10 01:47:05;;;;;;;0.15;0.15;;;16.00;66.00;;;17.45;56.41;102616.81;2016264;29;20057;-62
2022/07/10 01:48:08;;;;;;;0.20;0.20;;;16.00;66.20;;;17.45;56.63;102613.28;2018039;29;20702;-60
2022/07/10 01:49:13;;;;;;;0.15;0.15;;;16.00;66.40;;;17.47;56.81;102614.53;2016909;29;20478;-60
2022/07/10 01:50:15;;;;;;;0.20;0.20;;;16.00;66.60;;;17.47;56.93;102613.75;2018900;29;20049;-62
2022/07/10 01:51:19;;;;;;;0.20;0.20;;;16.00;66.90;;;17.46;57.10;102606.69;2017828;29;20162;-62
2022/07/10 01:52:22;;;;;;;0.10;0.10;;;16.00;67.10;;;17.44;57.42;102600.75;2016967;29;20409;-60
2022/07/10 01:53:27;;;;;;;0.20;0.20;;;16.00;67.30;;;17.44;57.56;102606.22;2017565;29;20411;-61
2022/07/10 01:54:30;;;;;;;0.20;0.20;;;16.00;67.50;;;17.40;57.78;102597.09;2010099;29;20569;-62
2022/07/10 01:55:33;;;;;;;0.20;0.20;;;16.00;67.60;;;17.42;57.76;102603.03;2014023;29;20194;-60
2022/07/10 01:56:36;;;;;;;0.20;0.20;;;16.00;67.70;;;17.44;57.89;102608.94;2017565;29;20113;-61
2022/07/10 01:57:40;;;;;;;0.20;0.20;;;16.00;67.80;;;17.43;57.86;102599.16;2015830;29;20414;-60
2022/07/10 01:58:43;;;;;;;0.20;0.20;;;16.00;67.90;;;17.43;57.99;102601.88;2016532;29;20128;-60
2022/07/10 01:59:47;;;;;;;0.20;0.20;;;16.00;67.90;;;17.42;58.02;102603.03;2017602;29;20064;-61
2022/07/10 02:00:50;;;;;;;0.20;0.20;;;16.00;68.00;;;17.42;58.23;102600.28;2009961;29;20053;-61
2022/07/10 02:01:53;;;;;;;0.20;0.20;;;16.00;68.00;;;17.43;58.03;102601.88;2009099;29;20076;-63
2022/07/10 02:05:37;;;;;;;0.20;0.20;;;16.00;67.60;;;17.40;57.79;102594.38;2012030;29;20152;-60
2022/07/10 02:06:40;;;;;;;0.20;0.20;;;16.00;67.40;;;17.37;57.49;102593.13;2017148;29;20052;-60
2022/07/10 02:07:44;;;;;;;0.20;0.20;;;16.00;67.90;;;17.38;57.61;102593.91;2020916;29;20064;-60
2022/07/10 02:08:47;;;;;;;0.20;0.20;;;16.00;67.20;;;17.36;57.56;102596.22;2020006;29;20057;-61
2022/07/10 02:09:51;;;;;;;0.20;0.20;;;16.00;67.00;;;17.33;57.43;102602.38;2016520;29;20068;-61
2022/07/10 02:10:54;;;;;;;0.20;0.20;;;16.00;66.80;;;17.33;57.17;102596.91;2019971;29;20551;-61
2022/07/10 02:11:57;;;;;;;0.15;0.15;;;16.00;66.50;;;17.23;57.16;102586.44;2017156;29;20061;-60
2022/07/10 02:13:00;;;;;;;0.20;0.20;;;16.00;66.30;;;17.33;57.11;102594.94;2008102;29;20097;-62
2022/07/10 02:14:04;;;;;;;0.20;0.20;;;16.00;66.10;;;17.35;56.93;102595.41;2006323;29;20077;-61
2022/07/10 02:15:08;;;;;;;0.10;0.10;;;16.10;66.10;;;17.34;56.93;102595.75;2023942;29;20103;-61
2022/07/10 02:16:12;;;;;;;0.20;0.20;;;16.00;66.00;;;17.36;56.58;102604.41;2026435;29;20093;-61
2022/07/10 02:17:16;;;;;;;0.20;0.20;;;16.10;65.90;;;17.28;56.80;102584.25;2017228;29;20418;-64
2022/07/10 02:18:19;;;;;;;0.20;0.20;;;16.10;65.80;;;17.38;56.61;102605.63;2017282;29;20068;-61
2022/07/10 02:19:22;;;;;;;0.20;0.20;;;16.10;65.70;;;17.38;56.49;102596.63;2018259;29;20123;-59
2022/07/10 02:20:25;;;;;;;0.20;0.20;;;16.10;65.70;;;17.39;56.66;102599.06;2025312;29;20158;-61
2022/07/10 02:21:28;;;;;;;0.20;0.20;;;16.10;65.50;;;17.42;56.48;102594.84;2017557;29;20057;-62
2022/07/10 02:22:31;;;;;;;0.20;0.20;;;16.10;65.50;;;17.43;56.30;102597.22;2017404;29;20057;-60
2022/07/10 02:23:34;;;;;;;0.20;0.20;;;16.10;65.50;;;17.42;56.55;102600.28;2017148;29;20525;-61
2022/07/10 02:24:39;;;;;;;0.20;0.20;;;16.10;65.50;;;17.46;56.29;102606.69;2017133;29;20462;-61
2022/07/10 02:25:41;;;;;;;0.20;0.20;;;16.10;65.50;;;17.46;56.31;102603.94;2016513;29;20470;-61
2022/07/10 02:26:45;;;;;;;0.20;0.20;;;16.10;65.40;;;17.49;56.24;102597.81;2024127;29;20088;-60
2022/07/10 02:27:47;;;;;;;0.20;0.20;;;16.10;65.40;;;17.46;56.37;102590.28;2024133;29;20841;-61
2022/07/10 02:28:51;;;;;;;0.20;0.20;;;16.20;65.40;;;17.52;56.25;102597.13;2016588;29;20084;-62
2022/07/10 02:29:53;;;;;;;0.20;0.20;;;16.20;65.40;;;17.46;56.20;102587.56;2017147;29;20652;-61
2022/07/10 02:30:57;;;;;;;0.20;0.20;;;16.20;65.30;;;17.55;56.31;102593.72;2017143;29;20480;-61
2022/07/10 02:31:59;;;;;;;0.20;0.20;;;16.20;65.30;;;17.54;55.84;102595.63;2016171;29;20510;-61
2022/07/10 02:33:03;;;;;;;0.20;0.20;;;16.20;65.20;;;17.58;55.80;102593.78;2017046;29;20090;-61
2022/07/10 02:34:06;;;;;;;0.20;0.20;;;16.20;65.70;;;17.58;55.81;102593.00;2013589;29;20079;-62
2022/07/10 02:35:10;;;;;;;0.20;0.20;;;16.20;65.10;;;17.58;56.15;102601.22;2014227;29;20060;-61
2022/07/10 02:36:12;;;;;;;0.10;0.10;;;16.20;65.00;;;17.55;55.67;102582.78;2016727;29;20131;-61
2022/07/10 02:37:16;;;;;;;0.17;0.17;;;16.20;65.00;;;17.59;55.81;102597.31;2017409;29;20561;-61
2022/07/10 02:38:18;;;;;;;0.30;0.30;;;16.20;65.00;;;17.60;55.94;102594.25;2016943;29;20509;-60
2022/07/10 02:39:23;;;;;;;0.20;0.20;;;16.20;65.00;;;17.59;55.51;102591.88;2015966;29;20088;-63
2022/07/10 02:40:27;;;;;;;0.20;0.20;;;16.20;64.90;;;17.61;55.64;102597.78;2016555;29;20053;-61
2022/07/10 02:41:30;;;;;;;0.20;0.20;;;16.20;64.90;;;17.61;55.84;102590.41;2005824;29;20065;-60
2022/07/10 02:42:32;;;;;;;0.20;0.20;;;16.20;65.00;;;17.62;55.60;102593.91;2009118;29;20058;-60
2022/07/10 02:43:36;;;;;;;0.20;0.20;;;16.20;64.90;;;17.62;55.76;102591.16;2019182;29;20083;-60
2022/07/10 02:44:38;;;;;;;0.20;0.20;;;16.20;65.00;;;17.62;55.67;102588.44;2016763;29;20057;-60
2022/07/10 02:45:42;;;;;;;0.22;0.20;;;16.20;65.00;;;17.62;55.88;102593.91;2017108;29;20056;-62
2022/07/10 02:46:49;;;;;;;0.20;0.20;;;16.20;65.10;;;17.64;56.00;102588.91;2016854;29;20417;-59
2022/07/10 02:47:51;;;;;;;0.20;0.20;;;16.20;65.20;;;17.65;55.89;102582.28;2017240;29;20064;-60
2022/07/10 02:48:55;;;;;;;0.20;0.20;;;16.20;65.20;;;17.65;55.71;102583.09;2017314;29;20056;-62
2022/07/10 02:49:58;;;;;;;0.20;0.20;;;16.20;65.10;;;17.60;55.74;102568.88;2015929;29;20053;-60
2022/07/10 02:51:02;;;;;;;0.20;0.20;;;16.30;65.20;;;17.66;55.83;102589.34;2014213;29;20072;-63
2022/07/10 02:52:05;;;;;;;0.20;0.20;;;16.20;65.20;;;17.67;55.79;102585.47;2009316;29;20060;-60
2022/07/10 02:53:08;;;;;;;0.20;0.20;;;16.20;65.30;;;17.63;56.19;102581.84;2016221;29;20122;-60
2022/07/10 02:54:11;;;;;;;0.20;0.20;;;16.20;65.40;;;17.64;56.08;102586.16;2016124;29;20477;-61
2022/07/10 02:55:14;;;;;;;0.30;0.30;;;16.20;65.50;;;17.65;56.20;102590.47;2017404;29;20053;-61
2022/07/10 02:56:18;;;;;;;0.20;0.20;;;16.30;65.70;;;17.66;56.38;102589.34;2027370;29;20488;-61
2022/07/10 02:57:21;;;;;;;0.20;0.20;;;16.30;65.70;;;17.67;56.44;102582.75;2032030;29;20052;-61
2022/07/10 02:58:24;;;;;;;0.20;0.20;;;16.30;65.90;;;17.68;56.72;102576.94;2017174;29;20057;-61
2022/07/10 02:59:27;;;;;;;0.20;0.20;;;16.20;66.10;;;17.68;56.97;102584.31;2016859;29;20084;-61
2022/07/10 03:00:29;;;;;;;0.20;0.20;;;16.30;66.40;;;17.69;56.90;102583.19;2017274;29;20630;-63
2022/07/10 03:01:33;;;;;;;0.20;0.20;;;16.30;66.40;;;17.67;57.16;102583.53;2016419;29;20116;-61
2022/07/10 03:02:35;;;;;;;0.20;0.20;;;16.30;66.50;;;17.67;57.02;102580.00;2016834;29;20135;-61
2022/07/10 03:03:39;;;;;;;0.20;0.20;;;16.20;66.50;;;17.63;57.09;102577.16;2016870;29;20068;-61
2022/07/10 03:04:41;;;;;;;0.20;0.20;;;16.30;66.70;;;17.65;57.25;102582.28;2008257;29;20053;-61
2022/07/10 03:05:45;;;;;;;0.20;0.20;;;16.30;66.80;;;17.66;57.36;102576.47;2002059;29;20054;-61
2022/07/10 03:06:47;;;;;;;0.20;0.20;;;16.30;66.90;;;17.65;57.35;102572.16;2018310;29;20481;-61
2022/07/10 03:07:51;;;;;;;0.20;0.20;;;16.30;67.00;;;17.63;57.09;102573.66;2015253;29;20519;-61
2022/07/10 03:08:55;;;;;;;0.20;0.20;;;16.20;67.00;;;17.59;57.62;102567.28;2010738;29;20049;-60
2022/07/10 03:09:57;;;;;;;0.20;0.20;;;16.20;67.10;;;17.60;57.52;102557.97;2020860;29;20052;-60
2022/07/10 03:11:00;;;;;;;0.20;0.20;;;16.20;67.10;;;17.63;57.63;102573.66;2017232;29;20389;-61
2022/07/10 03:12:06;;;;;;;0.20;0.20;;;16.20;67.30;;;17.60;57.77;102575.13;2016023;29;20061;-61
2022/07/10 03:13:09;;;;;;;0.20;0.20;;;16.20;67.50;;;17.58;58.16;102566.47;2016168;29;20095;-61
2022/07/10 03:14:12;;;;;;;0.20;0.20;;;16.20;67.50;;;17.59;58.02;102575.47;2017366;29;20063;-61
2022/07/10 03:15:15;;;;;;;0.25;0.25;;;16.20;67.80;;;17.58;58.34;102571.94;2016397;29;20582;-61
2022/07/10 03:16:18;;;;;;;0.20;0.20;;;16.20;67.80;;;17.59;58.28;102572.75;2017414;29;20536;-61
2022/07/10 03:17:21;;;;;;;0.20;0.20;;;16.20;68.00;;;17.60;58.33;102574.34;2016202;29;20505;-61
2022/07/10 03:18:23;;;;;;;0.20;0.20;;;16.20;68.10;;;17.59;58.53;102572.75;2016197;29;20056;-61
2022/07/10 03:19:27;;;;;;;0.20;0.20;;;16.20;68.30;;;17.59;58.66;102570.00;2012541;29;20053;-61
2022/07/10 03:20:30;;;;;;;0.20;0.20;;;16.20;68.50;;;17.58;58.92;102568.44;2018861;29;20560;-61
2022/07/10 03:21:33;;;;;;;0.20;0.20;;;16.20;68.60;;;17.57;59.34;102561.34;2017003;29;20521;-61
2022/07/10 03:22:36;;;;;;;0.20;0.20;;;16.20;68.70;;;17.57;59.58;102564.09;2017711;29;20169;-61
2022/07/10 03:23:39;;;;;;;0.30;0.30;;;16.20;68.80;;;17.58;59.33;102562.97;2016825;29;20088;-61
2022/07/10 03:24:43;;;;;;;0.30;0.30;;;16.20;69.00;;;17.58;59.29;102560.25;2017246;29;20168;-61
2022/07/10 03:25:46;;;;;;;0.30;0.30;;;16.20;69.20;;;17.57;59.55;102566.81;2015596;29;20056;-61
2022/07/10 03:26:52;;;;;;;0.20;0.20;;;16.30;69.40;;;17.57;59.81;102558.63;2016805;29;20509;-61
2022/07/10 03:27:56;;;;;;;0.20;0.20;;;16.30;69.50;;;17.56;59.91;102560.59;2017153;29;20057;-61
2022/07/10 03:28:59;;;;;;;0.30;0.30;;;16.30;69.70;;;17.56;60.13;102562.50;2016259;29;20131;-62
2022/07/10 03:30:03;;;;;;;0.20;0.20;;;16.20;69.70;;;17.53;60.34;102557.75;2017023;29;20513;-61
2022/07/10 03:31:05;;;;;;;0.30;0.30;;;16.20;69.90;;;17.52;60.22;102550.69;2016557;29;20065;-61
2022/07/10 03:32:09;;;;;;;0.20;0.20;;;16.20;70.00;;;17.50;60.41;102561.16;2016287;29;20475;-61
2022/07/10 03:33:12;;;;;;;0.20;0.20;;;16.20;70.20;;;17.50;60.58;102556.50;2008650;29;20060;-61
2022/07/10 03:34:15;;;;;;;0.30;0.30;;;16.20;70.40;;;17.47;60.77;102548.97;2006769;29;20593;-61
2022/07/10 03:35:17;;;;;;;0.20;0.20;;;16.20;70.50;;;17.49;60.89;102548.66;2017154;29;20068;-61
2022/07/10 03:36:21;;;;;;;0.20;0.20;;;16.20;70.50;;;17.49;60.83;102551.41;2015820;29;20084;-61
2022/07/10 03:37:23;;;;;;;0.20;0.20;;;16.20;70.70;;;17.51;60.79;102554.56;2017758;29;20545;-61
2022/07/10 03:38:27;;;;;;;0.20;0.20;;;16.20;71.00;;;17.52;61.07;102547.97;2017232;29;20088;-60
2022/07/10 03:39:29;;;;;;;0.20;0.20;;;16.20;71.10;;;17.49;61.26;102546.72;2016389;29;20064;-62
2022/07/10 03:40:33;;;;;;;0.20;0.20;;;16.20;71.20;;;17.50;61.27;102542.84;2017045;29;20506;-59
2022/07/10 03:41:35;;;;;;;0.20;0.20;;;16.20;71.30;;;17.50;61.29;102551.03;2015287;29;20064;-61
2022/07/10 03:42:39;;;;;;;0.30;0.30;;;16.20;71.40;;;17.50;61.63;102545.59;2017546;29;20436;-65
2022/07/10 03:43:43;;;;;;;0.22;0.22;;;16.20;71.50;;;17.47;61.33;102542.75;2017094;29;20080;-61
2022/07/10 03:44:46;;;;;;;0.20;0.20;;;16.20;71.60;;;17.52;61.60;102556.16;2016438;29;20057;-63
2022/07/10 03:45:49;;;;;;;0.30;0.30;;;16.20;71.60;;;17.52;61.56;102550.69;2017521;29;20057;-60
2022/07/10 03:46:52;;;;;;;0.20;0.20;;;16.20;71.80;;;17.53;61.76;102546.81;2017076;29;20108;-61
2022/07/10 03:47:55;;;;;;;0.20;0.20;;;16.20;72.00;;;17.56;61.72;102554.31;2016250;29;20056;-63
2022/07/10 03:48:58;;;;;;;0.20;0.20;;;16.20;72.10;;;17.56;61.62;102548.84;2008501;29;20045;-61
2022/07/10 03:50:02;;;;;;;0.20;0.20;;;16.20;72.20;;;17.57;61.91;102548.50;2012643;29;20053;-63
2022/07/10 03:51:05;;;;;;;0.20;0.20;;;16.20;72.40;;;17.57;62.23;102550.44;2016563;29;20405;-62
2022/07/10 03:52:08;;;;;;;0.30;0.30;;;16.20;72.50;;;17.56;62.34;102546.13;2017059;29;20057;-61
2022/07/10 03:53:12;;;;;;;0.20;0.20;;;16.20;72.60;;;17.55;62.45;102541.81;2016538;29;20103;-62
2022/07/10 03:54:14;;;;;;;0.20;0.20;;;16.20;73.00;;;17.57;62.92;102550.44;2016679;29;20496;-61
2022/07/10 03:55:18;;;;;;;0.20;0.20;;;16.20;73.20;;;17.56;63.07;102532.47;2016600;29;20053;-65
2022/07/10 03:57:53;;;;;;;0.20;0.20;;;16.20;74.00;;;17.55;63.80;102541.81;2016267;29;20132;-62
2022/07/10 03:58:57;;;;;;;0.30;0.30;;;16.10;74.10;;;17.52;63.92;102540.56;2009256;29;20068;-60
2022/07/10 04:00:04;;;;;;;0.25;0.25;;;16.10;74.70;;;17.51;64.23;102535.44;1999376;29;20057;-61
2022/07/10 04:01:13;;;;;;;0.30;0.30;;;16.10;74.70;;;17.50;64.28;102537.41;2003148;29;20054;-60
2022/07/10 04:02:16;;;;;;;0.20;0.20;;;16.20;75.00;;;17.49;64.47;102540.47;2024637;29;20557;-62
2022/07/10 04:03:20;;;;;;;0.30;0.30;;;16.10;75.10;;;17.48;64.61;102533.41;2020007;29;20120;-61
2022/07/10 04:04:23;;;;;;;0.20;0.20;;;16.20;75.40;;;17.46;64.61;102533.75;2016201;29;20081;-61
2022/07/10 04:05:27;;;;;;;0.20;0.20;;;16.20;75.40;;;17.48;64.73;102538.84;2010127;29;20057;-60
2022/07/10 04:06:31;;;;;;;0.20;0.20;;;16.10;75.40;;;17.48;64.63;102536.13;2012966;29;20449;-61
2022/07/10 04:07:34;;;;;;;0.20;0.20;;;16.10;75.50;;;17.50;64.45;102542.06;2016783;29;20061;-61
2022/07/10 04:08:39;;;;;;;0.20;0.20;;;16.10;75.40;;;17.50;64.40;102542.84;2017887;29;20573;-62
2022/07/10 04:09:43;;;;;;;0.20;0.20;;;16.10;75.40;;;17.52;64.52;102537.03;2016471;29;20155;-61
2022/07/10 04:10:46;;;;;;;0.28;0.28;;;16.10;75.60;;;17.52;64.12;102534.31;2016989;29;20056;-62
2022/07/10 04:11:51;;;;;;;0.30;0.30;;;16.10;75.70;;;17.51;64.48;102533.50;2019680;29;20568;-62
2022/07/10 04:12:55;;;;;;;0.28;0.28;;;16.10;75.70;;;17.52;64.58;102539.78;2031757;29;20500;-62
2022/07/10 04:13:59;;;;;;;0.20;0.20;;;16.20;75.60;;;17.52;64.81;102537.03;2020342;29;20084;-61
2022/07/10 04:15:03;;;;;;;0.20;0.20;;;16.10;75.60;;;17.51;64.61;102538.16;2015719;29;20068;-61
2022/07/10 04:16:10;;;;;;;0.20;0.20;;;16.20;75.60;;;17.52;64.49;102535.09;2014867;29;20522;-67
2022/07/10 04:17:12;;;;;;;0.20;0.20;;;16.20;75.50;;;17.46;64.47;102531.00;2015884;29;20061;-60
2022/07/10 04:18:15;;;;;;;0.20;0.20;;;16.20;75.50;;;17.51;64.61;102533.50;2016944;29;20068;-61
2022/07/10 04:19:18;;;;;;;0.28;0.28;;;16.20;75.50;;;17.58;64.46;102541.88;2016221;29;20112;-61
2022/07/10 04:20:23;;;;;;;0.20;0.20;;;16.20;75.40;;;17.59;64.38;102539.97;2016673;29;20064;-61
2022/07/10 04:21:26;;;;;;;0.20;0.20;;;16.20;75.40;;;17.59;64.09;102540.78;2016815;29;20061;-61
2022/07/10 04:22:29;;;;;;;0.20;0.20;;;16.20;75.40;;;17.58;64.31;102536.44;2016541;29;20105;-61
2022/07/10 04:23:32;;;;;;;0.20;0.20;;;16.30;75.40;;;17.50;64.27;102525.66;2016592;29;20100;-62
2022/07/10 04:24:36;;;;;;;0.20;0.20;;;16.20;75.20;;;17.59;64.23;102539.97;2016465;29;20057;-61
2022/07/10 04:25:38;;;;;;;0.30;0.30;;;16.30;75.20;;;17.60;64.10;102533.38;2016257;29;20502;-62
2022/07/10 04:26:42;;;;;;;0.20;0.20;;;16.20;75.00;;;17.61;63.72;102537.69;2016788;29;20091;-62
2022/07/10 04:27:44;;;;;;;0.20;0.20;;;16.30;74.90;;;17.60;64.10;102536.09;2008123;29;20506;-61
2022/07/10 04:28:48;;;;;;;0.17;0.17;;;16.30;74.80;;;17.60;63.93;102541.56;2008398;29;20061;-61
2022/07/10 04:29:52;;;;;;;0.20;0.20;;;16.30;74.70;;;17.61;63.69;102534.97;2016462;29;20053;-61